Time;durP1;ratioP1;P1;durP2;ratioP2;P2;SDS_P1;SDS_P2;PMS_P1;PMS_P2;Temp;Humidity;BMP_temperature;BMP_pressure;BME280_temperature;BME280_humidity;BME280_pressure;Samples;Min_cycle;Max_cycle;Signal;HPM_P1;HPM_P2
2023/06/13 00:01:48;;;;;;;9.20;4.30;;;23.30;91.20;;;;;;7395106;19;19926;-72
2023/06/13 00:04:21;;;;;;;9.10;4.50;;;23.20;91.50;;;;;;7395495;19;19919;-72
2023/06/13 00:06:50;;;;;;;9.15;5.18;;;23.20;91.90;;;;;;7396378;19;19914;-72
2023/06/13 00:09:19;;;;;;;7.47;4.85;;;23.20;92.20;;;;;;7397416;19;19929;-72
2023/06/13 00:11:46;;;;;;;8.68;4.28;;;23.20;92.40;;;;;;7397786;19;19974;-72
2023/06/13 00:14:16;;;;;;;7.90;4.93;;;23.10;92.70;;;;;;7402487;19;19918;-73
2023/06/13 00:16:43;;;;;;;10.27;5.53;;;23.10;93.30;;;;;;7404852;19;19907;-73
2023/06/13 00:19:13;;;;;;;9.95;5.13;;;23.10;93.90;;;;;;7350487;19;19974;-72
2023/06/13 00:21:39;;;;;;;10.15;5.05;;;23.10;94.30;;;;;;7405509;19;19911;-73
2023/06/13 00:24:05;;;;;;;8.93;5.38;;;23.10;94.70;;;;;;7404469;19;19926;-72
2023/06/13 00:26:31;;;;;;;9.82;5.22;;;23.10;95.00;;;;;;7406513;19;19919;-70
2023/06/13 00:28:57;;;;;;;9.23;5.28;;;23.00;95.60;;;;;;7403753;19;19966;-72
2023/06/13 00:31:28;;;;;;;10.52;6.07;;;23.00;96.30;;;;;;7402425;19;19949;-72
2023/06/13 00:33:58;;;;;;;11.52;5.88;;;23.00;97.00;;;;;;7405988;19;19915;-72
2023/06/13 00:36:27;;;;;;;11.05;5.45;;;22.90;97.60;;;;;;7399895;19;20316;-72
2023/06/13 00:38:56;;;;;;;13.18;6.38;;;23.00;97.90;;;;;;7403847;19;19925;-71
2023/06/13 00:41:22;;;;;;;13.45;6.90;;;23.00;98.10;;;;;;7402969;19;20018;-73
2023/06/13 00:43:48;;;;;;;12.65;7.18;;;22.90;98.90;;;;;;7404884;19;19931;-71
2023/06/13 00:46:28;;;;;;;14.38;7.25;;;22.90;99.10;;;;;;7404266;19;19937;-72
2023/06/13 00:48:57;;;;;;;12.73;7.35;;;22.90;99.10;;;;;;7405619;19;19926;-71
2023/06/13 00:51:24;;;;;;;13.18;6.97;;;22.90;99.20;;;;;;7402648;19;19922;-71
2023/06/13 00:53:51;;;;;;;11.70;6.88;;;22.90;99.40;;;;;;7402251;19;19919;-72
2023/06/13 00:56:17;;;;;;;10.73;6.40;;;22.90;99.60;;;;;;7402984;19;19918;-72
2023/06/13 00:58:42;;;;;;;11.70;7.03;;;22.90;99.60;;;;;;7403743;19;19929;-71
2023/06/13 01:01:10;;;;;;;10.65;6.95;;;23.00;99.80;;;;;;7399940;19;19918;-71
2023/06/13 01:03:36;;;;;;;12.27;7.10;;;23.00;99.80;;;;;;7400975;19;20384;-72
2023/06/13 01:06:02;;;;;;;13.25;7.15;;;23.00;99.90;;;;;;7387288;19;19915;-71
2023/06/13 01:08:29;;;;;;;13.10;6.97;;;23.00;99.90;;;;;;7374884;19;19919;-71
2023/06/13 01:11:09;;;;;;;15.50;7.10;;;22.90;99.90;;;;;;7404531;19;19999;-72
2023/06/13 01:14:02;;;;;;;13.18;6.60;;;22.80;99.90;;;;;;7400494;19;19915;-71
2023/06/13 01:16:33;;;;;;;15.40;6.82;;;22.80;99.90;;;;;;7400955;19;19914;-71
2023/06/13 01:19:00;;;;;;;14.98;7.32;;;22.60;99.90;;;;;;7402735;19;19922;-71
2023/06/13 01:21:27;;;;;;;10.73;5.55;;;22.50;99.90;;;;;;7402098;19;20025;-72
2023/06/13 01:23:58;;;;;;;;;;;22.50;99.90;;;;;;7403092;19;19910;-71
2023/06/13 01:26:45;;;;;;;10.50;5.60;;;22.40;99.90;;;;;;7402067;19;19928;-72
2023/06/13 01:29:12;;;;;;;12.68;7.43;;;22.40;99.90;;;;;;7401435;19;19918;-71
2023/06/13 01:31:40;;;;;;;13.02;6.07;;;22.30;99.90;;;;;;7400481;19;20660;-72
2023/06/13 01:34:05;;;;;;;13.27;5.90;;;22.30;99.90;;;;;;7401764;19;19941;-72
2023/06/13 01:36:31;;;;;;;10.32;5.18;;;22.40;99.90;;;;;;7403398;19;20311;-72
2023/06/13 01:38:58;;;;;;;12.70;5.75;;;22.40;99.90;;;;;;7402642;19;19978;-73
2023/06/13 01:41:24;;;;;;;11.48;5.30;;;22.50;99.90;;;;;;7401642;19;20012;-73
2023/06/13 01:43:50;;;;;;;9.52;4.50;;;22.50;99.90;;;;;;7404570;19;19923;-72
2023/06/13 01:46:23;;;;;;;9.45;4.30;;;22.50;99.90;;;;;;7402425;19;19922;-72
2023/06/13 01:49:12;;;;;;;10.43;4.22;;;22.40;99.90;;;;;;7403638;19;19939;-72
2023/06/13 01:51:50;;;;;;;10.73;4.68;;;22.50;99.90;;;;;;7401029;19;19915;-72
2023/06/13 01:54:21;;;;;;;11.27;5.10;;;22.40;99.90;;;;;;7399320;19;19918;-72
2023/06/13 01:56:55;;;;;;;11.70;4.93;;;22.30;99.90;;;;;;7403428;19;19942;-72
2023/06/13 01:59:25;;;;;;;11.20;5.15;;;22.30;99.90;;;;;;7401598;19;19994;-73
2023/06/13 02:01:54;;;;;;;13.13;5.25;;;22.30;99.90;;;;;;7404008;19;19922;-73
2023/06/13 02:04:19;;;;;;;7.78;4.82;;;22.30;99.90;;;;;;7401903;19;19918;-71
2023/06/13 02:06:45;;;;;;;12.65;4.80;;;22.30;99.90;;;;;;7400550;19;20362;-72
2023/06/13 02:09:11;;;;;;;15.48;5.72;;;22.30;99.90;;;;;;7402018;19;19949;-71
2023/06/13 02:11:37;;;;;;;11.50;4.30;;;22.30;99.90;;;;;;7401444;19;19921;-71
2023/06/13 02:14:03;;;;;;;10.45;5.57;;;22.40;99.90;;;;;;7400408;19;20279;-72
2023/06/13 02:16:30;;;;;;;10.85;4.57;;;22.20;99.90;;;;;;7402349;19;19926;-72
2023/06/13 02:18:59;;;;;;;9.93;4.32;;;22.20;99.90;;;;;;7400872;19;20340;-72
2023/06/13 02:21:26;;;;;;;13.70;4.45;;;22.20;99.90;;;;;;7402113;19;20273;-71
2023/06/13 02:23:53;;;;;;;9.02;4.35;;;22.20;99.90;;;;;;7402412;19;19935;-72
2023/06/13 02:26:19;;;;;;;10.73;4.15;;;22.20;99.90;;;;;;7401100;19;19961;-71
2023/06/13 02:28:45;;;;;;;12.45;4.10;;;22.20;99.90;;;;;;7400897;19;19922;-72
2023/06/13 02:31:11;;;;;;;10.15;4.18;;;22.10;99.90;;;;;;7400718;19;19919;-72
2023/06/13 02:33:38;;;;;;;9.68;4.63;;;22.20;99.90;;;;;;7398239;19;20348;-71
2023/06/13 02:36:05;;;;;;;10.02;4.30;;;22.20;99.90;;;;;;7401234;19;19919;-72
2023/06/13 02:38:31;;;;;;;9.50;4.32;;;22.10;99.90;;;;;;7402913;19;19974;-72
2023/06/13 02:40:57;;;;;;;12.35;4.28;;;22.10;99.90;;;;;;7400420;19;19974;-70
2023/06/13 02:43:23;;;;;;;9.52;4.07;;;22.20;99.90;;;;;;7399913;19;19922;-71
2023/06/13 02:45:49;;;;;;;8.82;4.35;;;22.20;99.90;;;;;;7398901;19;19929;-71
2023/06/13 02:48:15;;;;;;;8.98;4.65;;;22.20;99.90;;;;;;7399221;19;19926;-71
2023/06/13 02:50:41;;;;;;;9.30;4.60;;;22.20;99.90;;;;;;7401294;19;19926;-70
2023/06/13 02:53:07;;;;;;;9.45;5.22;;;22.20;99.90;;;;;;7398447;19;20340;-71
2023/06/13 02:55:33;;;;;;;9.55;4.50;;;22.20;99.90;;;;;;7400911;19;20509;-70
2023/06/13 02:57:58;;;;;;;8.63;4.45;;;22.20;99.90;;;;;;7399775;19;20389;-70
2023/06/13 03:00:25;;;;;;;9.48;4.63;;;22.20;99.90;;;;;;7398790;19;19915;-71
2023/06/13 03:02:51;;;;;;;12.65;4.78;;;22.20;99.90;;;;;;7345789;19;19929;-70
2023/06/13 03:05:17;;;;;;;9.75;4.75;;;22.10;99.90;;;;;;7400254;19;19919;-70
2023/06/13 03:07:46;;;;;;;10.07;5.20;;;22.00;99.90;;;;;;7398312;19;19923;-70
2023/06/13 03:10:13;;;;;;;15.48;4.97;;;22.10;99.90;;;;;;7398544;19;19911;-70
2023/06/13 03:12:41;;;;;;;10.52;4.97;;;22.10;99.90;;;;;;7400101;19;19986;-70
2023/06/13 03:15:07;;;;;;;10.45;4.43;;;22.00;99.90;;;;;;7396590;19;19922;-70
2023/06/13 03:17:34;;;;;;;10.02;4.63;;;21.90;99.90;;;;;;7399064;19;20362;-70
2023/06/13 03:19:59;;;;;;;;;;;21.90;99.90;;;;;;7402210;19;20010;-71
2023/06/13 03:22:25;;;;;;;11.93;4.38;;;21.90;99.90;;;;;;7398825;19;19945;-71
2023/06/13 03:24:52;;;;;;;9.50;4.72;;;21.90;99.90;;;;;;7398613;19;19922;-70
2023/06/13 03:27:19;;;;;;;10.13;4.57;;;22.00;99.90;;;;;;7397758;19;19930;-71
2023/06/13 03:29:46;;;;;;;9.65;4.18;;;22.00;99.90;;;;;;7399668;19;19939;-70
2023/06/13 03:32:12;;;;;;;10.05;4.28;;;22.00;99.90;;;;;;7398315;19;20339;-70
2023/06/13 03:34:39;;;;;;;10.95;4.78;;;22.10;99.90;;;;;;7397542;19;19929;-70
2023/06/13 03:37:07;;;;;;;10.27;4.45;;;22.10;99.90;;;;;;7397135;19;19922;-69
2023/06/13 03:39:33;;;;;;;9.98;4.30;;;22.10;99.90;;;;;;7397688;19;20232;-71
2023/06/13 03:42:00;;;;;;;9.10;4.60;;;22.10;99.90;;;;;;7399525;19;19922;-70
2023/06/13 03:44:27;;;;;;;10.00;4.65;;;22.10;99.90;;;;;;7398147;19;20005;-71
2023/06/13 03:46:54;;;;;;;9.82;4.70;;;22.10;99.90;;;;;;7403842;19;19923;-70
2023/06/13 03:49:20;;;;;;;11.82;4.63;;;22.10;99.90;;;;;;7403127;19;19918;-70
2023/06/13 03:51:46;;;;;;;9.38;4.60;;;22.10;99.90;;;;;;7404374;19;19925;-70
2023/06/13 03:54:12;;;;;;;7.85;4.30;;;22.10;99.90;;;;;;7403699;19;19914;-70
2023/06/13 03:56:38;;;;;;;11.30;5.07;;;22.10;99.90;;;;;;7405546;19;20339;-69
2023/06/13 03:59:03;;;;;;;12.15;6.38;;;22.10;99.90;;;;;;7403713;19;20020;-70
2023/06/13 04:01:29;;;;;;;12.65;5.85;;;22.10;99.90;;;;;;7405363;19;19935;-72
2023/06/13 04:03:55;;;;;;;11.68;5.90;;;22.10;99.90;;;;;;7404765;19;20334;-70
2023/06/13 04:06:21;;;;;;;9.13;5.75;;;22.10;99.90;;;;;;7403909;19;20390;-69
2023/06/13 04:08:47;;;;;;;13.52;6.97;;;22.20;99.90;;;;;;7404043;19;19922;-70
2023/06/13 04:11:13;;;;;;;11.38;6.00;;;22.20;99.90;;;;;;7402877;19;19922;-70
2023/06/13 04:13:39;;;;;;;12.40;6.63;;;22.20;99.90;;;;;;7404196;19;19933;-71
2023/06/13 04:16:04;;;;;;;11.57;5.82;;;22.20;99.90;;;;;;7403265;19;19918;-70
2023/06/13 04:18:30;;;;;;;9.40;5.82;;;22.20;99.90;;;;;;7402002;19;19923;-70
2023/06/13 04:20:57;;;;;;;12.02;6.47;;;22.20;99.90;;;;;;7404000;19;19918;-70
2023/06/13 04:23:25;;;;;;;;;;;22.20;99.90;;;;;;7407133;19;20359;-70
2023/06/13 04:25:52;;;;;;;10.85;6.43;;;22.20;99.90;;;;;;7398208;19;19926;-70
2023/06/13 04:28:18;;;;;;;11.80;6.28;;;22.20;99.90;;;;;;7400979;19;20721;-70
2023/06/13 04:30:47;;;;;;;15.38;7.53;;;22.30;99.90;;;;;;7402330;19;19918;-70
2023/06/13 04:33:17;;;;;;;14.25;8.10;;;22.30;99.90;;;;;;7403168;19;19927;-70
2023/06/13 04:35:44;;;;;;;14.80;8.48;;;22.30;99.90;;;;;;7402378;19;20403;-70
2023/06/13 04:38:14;;;;;;;15.88;8.20;;;22.30;99.90;;;;;;7401889;19;20240;-70
2023/06/13 04:40:40;;;;;;;15.15;9.15;;;22.30;99.90;;;;;;7402553;19;20302;-70
2023/06/13 04:43:05;;;;;;;12.75;7.80;;;22.30;99.90;;;;;;7400385;19;19990;-71
2023/06/13 04:45:32;;;;;;;17.27;8.85;;;22.30;99.90;;;;;;7404315;19;20351;-71
2023/06/13 04:48:01;;;;;;;13.20;7.63;;;22.30;99.90;;;;;;7402908;19;19919;-71
2023/06/13 04:50:28;;;;;;;15.00;8.27;;;22.30;99.90;;;;;;7401951;19;20850;-70
2023/06/13 04:52:54;;;;;;;14.25;8.45;;;22.30;99.90;;;;;;7403732;19;19914;-71
2023/06/13 04:55:22;;;;;;;;;;;22.30;99.90;;;;;;7402277;19;20327;-70
2023/06/13 04:57:48;;;;;;;15.18;8.25;;;22.30;99.90;;;;;;7401021;19;20350;-70
2023/06/13 05:00:15;;;;;;;14.95;8.48;;;22.40;99.90;;;;;;7400406;19;19919;-71
2023/06/13 05:02:42;;;;;;;14.07;7.40;;;22.40;99.90;;;;;;7403275;19;19953;-70
2023/06/13 05:05:08;;;;;;;11.52;7.53;;;22.40;99.90;;;;;;7403059;19;19922;-71
2023/06/13 05:07:39;;;;;;;12.80;7.05;;;22.50;99.90;;;;;;7402243;19;19947;-70
2023/06/13 05:10:05;;;;;;;12.45;7.32;;;22.50;99.90;;;;;;7401896;19;19943;-71
2023/06/13 05:12:31;;;;;;;12.20;5.95;;;22.50;99.90;;;;;;7402681;19;19919;-70
2023/06/13 05:14:57;;;;;;;12.55;6.53;;;22.50;99.90;;;;;;7401584;19;19925;-70
2023/06/13 05:17:22;;;;;;;13.32;7.03;;;22.50;99.90;;;;;;7402424;19;19922;-71
2023/06/13 05:19:48;;;;;;;13.07;7.00;;;22.50;99.90;;;;;;7403624;19;20400;-70
2023/06/13 05:22:15;;;;;;;11.32;6.28;;;22.50;99.90;;;;;;7401003;19;19918;-71
2023/06/13 05:24:41;;;;;;;13.70;6.20;;;22.50;99.90;;;;;;7402645;19;20347;-70
2023/06/13 05:27:07;;;;;;;11.07;6.00;;;22.40;99.90;;;;;;7400770;19;19930;-70
2023/06/13 05:29:33;;;;;;;9.80;5.15;;;22.40;99.90;;;;;;7404387;19;20256;-70
2023/06/13 05:31:59;;;;;;;8.60;4.55;;;22.40;98.60;;;;;;7403875;19;19946;-70
2023/06/13 05:34:26;;;;;;;10.38;4.78;;;22.40;98.70;;;;;;7398508;19;19947;-72
2023/06/13 05:36:53;;;;;;;9.43;4.80;;;22.40;99.00;;;;;;7401692;19;19926;-71
2023/06/13 05:39:19;;;;;;;;;;;22.30;99.90;;;;;;7400705;19;19915;-71
2023/06/13 05:41:44;;;;;;;13.23;6.00;;;22.30;99.90;;;;;;7402037;19;19921;-71
2023/06/13 05:44:13;;;;;;;9.63;5.63;;;22.30;99.90;;;;;;7400825;19;19915;-71
2023/06/13 05:46:38;;;;;;;10.00;4.65;;;22.20;99.90;;;;;;7402694;19;19918;-71
2023/06/13 05:49:04;;;;;;;10.15;4.93;;;22.30;99.70;;;;;;7399253;19;20265;-71
2023/06/13 05:51:31;;;;;;;10.70;4.57;;;22.30;99.90;;;;;;7400318;19;20261;-71
2023/06/13 05:53:57;;;;;;;9.70;4.63;;;22.40;99.50;;;;;;7401064;19;19929;-70
2023/06/13 05:56:23;;;;;;;9.98;4.03;;;22.40;98.20;;;;;;7400450;19;19944;-71
2023/06/13 05:58:50;;;;;;;7.50;3.47;;;22.50;97.00;;;;;;7400585;19;19922;-70
2023/06/13 06:01:16;;;;;;;6.45;3.25;;;22.60;96.00;;;;;;7398777;19;19922;-70
2023/06/13 06:03:42;;;;;;;8.13;3.42;;;22.70;95.80;;;;;;7402222;19;19914;-71
2023/06/13 06:06:07;;;;;;;8.05;3.88;;;22.90;95.30;;;;;;7399261;19;19943;-71
2023/06/13 06:08:33;;;;;;;6.13;3.60;;;22.90;94.90;;;;;;7398850;19;19919;-70
2023/06/13 06:10:59;;;;;;;10.10;4.20;;;23.00;94.50;;;;;;7400546;19;19922;-71
2023/06/13 06:13:25;;;;;;;8.45;4.45;;;23.10;94.00;;;;;;7401419;19;19914;-72
2023/06/13 06:15:51;;;;;;;9.55;4.60;;;23.20;93.30;;;;;;7401670;19;20268;-71
2023/06/13 06:18:20;;;;;;;8.32;4.13;;;23.30;93.70;;;;;;7400207;19;19917;-71
2023/06/13 06:20:46;;;;;;;9.50;4.65;;;23.50;92.20;;;;;;7401964;19;20347;-71
2023/06/13 06:23:13;;;;;;;10.07;4.50;;;23.30;92.70;;;;;;7398514;19;19910;-70
2023/06/13 06:25:40;;;;;;;12.35;5.20;;;23.60;92.80;;;;;;7399729;19;19926;-70
2023/06/13 06:28:06;;;;;;;11.10;5.78;;;23.80;92.60;;;;;;7397871;19;19914;-69
2023/06/13 06:30:31;;;;;;;13.95;6.25;;;23.80;93.00;;;;;;7400618;19;20271;-71
2023/06/13 06:32:57;;;;;;;9.75;4.82;;;23.70;92.40;;;;;;7401622;19;19926;-71
2023/06/13 06:35:23;;;;;;;10.18;5.45;;;23.50;92.70;;;;;;7367459;19;20791;-70
2023/06/13 06:37:49;;;;;;;13.07;7.05;;;23.60;93.10;;;;;;7399392;19;20263;-72
2023/06/13 06:40:16;;;;;;;14.55;6.50;;;23.50;93.30;;;;;;7401423;19;19998;-72
2023/06/13 06:42:42;;;;;;;9.32;5.72;;;23.40;92.80;;;;;;7400852;19;19930;-72
2023/06/13 06:45:09;;;;;;;12.55;5.68;;;23.30;92.40;;;;;;7368072;19;19918;-71
2023/06/13 06:47:36;;;;;;;8.93;5.05;;;23.10;92.00;;;;;;7400679;19;19923;-73
2023/06/13 06:50:01;;;;;;;12.23;5.70;;;22.90;92.50;;;;;;7400507;19;19911;-73
2023/06/13 06:52:28;;;;;;;11.05;6.72;;;23.10;92.30;;;;;;7400403;19;19948;-72
2023/06/13 06:54:55;;;;;;;13.25;6.30;;;23.20;92.20;;;;;;7401276;19;19950;-72
2023/06/13 06:57:20;;;;;;;10.50;6.18;;;23.30;92.30;;;;;;7399842;19;19935;-73
2023/06/13 06:59:46;;;;;;;11.77;6.30;;;23.30;91.80;;;;;;7402354;19;19922;-72
2023/06/13 07:02:12;;;;;;;10.10;6.05;;;23.20;91.80;;;;;;7399183;19;19918;-72
2023/06/13 07:04:37;;;;;;;12.07;5.28;;;23.20;91.50;;;;;;7400504;19;19919;-72
2023/06/13 07:07:03;;;;;;;9.98;5.28;;;23.00;91.00;;;;;;7398641;19;19922;-72
2023/06/13 07:09:29;;;;;;;12.43;5.10;;;22.80;91.10;;;;;;7398775;19;19922;-72
2023/06/13 07:11:57;;;;;;;8.25;5.15;;;22.70;91.20;;;;;;7394682;19;20642;-72
2023/06/13 07:14:26;;;;;;;10.20;5.68;;;22.60;91.30;;;;;;7396924;19;19942;-72
2023/06/13 07:16:55;;;;;;;7.80;4.68;;;22.50;91.40;;;;;;7398141;19;19938;-72
2023/06/13 07:19:23;;;;;;;8.30;4.53;;;22.60;91.40;;;;;;7392709;19;20275;-72
2023/06/13 07:21:49;;;;;;;10.88;4.78;;;22.50;91.20;;;;;;7370279;19;20296;-73
2023/06/13 07:24:15;;;;;;;10.88;4.95;;;22.40;91.20;;;;;;7349706;19;19953;-73
2023/06/13 07:26:40;;;;;;;8.45;4.18;;;22.40;91.10;;;;;;7379473;19;20010;-73
2023/06/13 07:29:07;;;;;;;8.98;4.35;;;22.30;90.90;;;;;;7372732;19;20316;-74
2023/06/13 07:31:33;;;;;;;8.27;3.88;;;22.20;91.00;;;;;;7366866;19;19942;-72
2023/06/13 07:33:58;;;;;;;8.52;3.92;;;22.20;90.80;;;;;;7333698;19;19970;-72
2023/06/13 07:36:24;;;;;;;7.40;3.25;;;22.30;90.60;;;;;;7320149;19;19933;-70
2023/06/13 07:38:51;;;;;;;12.68;3.85;;;22.20;90.60;;;;;;7350404;19;19931;-71
2023/06/13 07:41:17;;;;;;;;;;;22.20;90.60;;;;;;7354672;19;19990;-70
2023/06/13 07:43:42;;;;;;;8.90;3.50;;;22.30;90.50;;;;;;7349899;19;19911;-70
2023/06/13 07:46:08;;;;;;;11.43;4.20;;;22.30;90.40;;;;;;7341547;19;20020;-70
2023/06/13 07:48:34;;;;;;;9.85;4.25;;;22.50;90.10;;;;;;7344298;19;20290;-71
2023/06/13 07:51:00;;;;;;;6.90;3.67;;;22.60;89.80;;;;;;7340954;19;19925;-70
2023/06/13 07:53:25;;;;;;;8.35;3.60;;;22.60;89.10;;;;;;7367064;19;19926;-71
2023/06/13 07:55:54;;;;;;;8.50;4.38;;;22.80;90.30;;;;;;7333459;19;20675;-72
2023/06/13 07:58:20;;;;;;;10.05;3.80;;;21.90;93.70;;;;;;7346912;19;19919;-71
2023/06/13 08:00:46;;;;;;;6.72;3.42;;;21.50;95.20;;;;;;7355179;19;19953;-71
2023/06/13 08:03:11;;;;;;;8.40;3.53;;;21.30;95.10;;;;;;7366109;19;19922;-71
2023/06/13 08:05:37;;;;;;;9.43;3.90;;;21.40;95.70;;;;;;7341394;19;19933;-70
2023/06/13 08:08:03;;;;;;;6.97;3.88;;;21.40;94.60;;;;;;7336614;19;21499;-71
2023/06/13 08:10:29;;;;;;;8.00;3.17;;;21.60;94.90;;;;;;7358167;19;19918;-71
2023/06/13 08:12:55;;;;;;;5.78;3.30;;;21.70;94.90;;;;;;7336615;19;19910;-70
2023/06/13 08:15:20;;;;;;;7.85;3.85;;;22.00;94.40;;;;;;7334118;19;21085;-71
2023/06/13 08:17:46;;;;;;;7.57;3.17;;;22.30;93.70;;;;;;7329139;19;19922;-71
2023/06/13 08:20:13;;;;;;;5.90;3.33;;;22.50;92.90;;;;;;7336545;19;19918;-71
2023/06/13 08:22:40;;;;;;;5.85;3.58;;;22.80;92.10;;;;;;7341287;19;19932;-70
2023/06/13 08:25:09;;;;;;;8.65;3.83;;;22.80;91.30;;;;;;7354901;19;20643;-70
2023/06/13 08:27:36;;;;;;;7.15;3.22;;;22.90;91.30;;;;;;7348651;19;20636;-71
2023/06/13 08:30:06;;;;;;;6.63;3.28;;;23.10;90.50;;;;;;7369439;19;19925;-71
2023/06/13 08:32:32;;;;;;;5.43;3.53;;;23.20;90.30;;;;;;7375062;19;19961;-71
2023/06/13 08:35:03;;;;;;;6.13;2.92;;;23.30;89.30;;;;;;7353030;19;19964;-70
2023/06/13 08:37:28;;;;;;;7.57;3.25;;;23.30;88.10;;;;;;7346570;19;19918;-71
2023/06/13 08:39:54;;;;;;;8.57;3.03;;;23.30;86.00;;;;;;7337692;19;19915;-71
2023/06/13 08:42:20;;;;;;;6.72;3.03;;;23.40;85.00;;;;;;7351906;19;19914;-70
2023/06/13 08:44:48;;;;;;;5.50;2.80;;;23.40;83.80;;;;;;7336359;19;19922;-71
2023/06/13 08:47:13;;;;;;;6.85;2.97;;;23.50;82.70;;;;;;7350635;19;19918;-71
2023/06/13 08:49:39;;;;;;;5.85;2.95;;;23.50;81.90;;;;;;7351182;19;19923;-71
2023/06/13 08:52:11;;;;;;;5.28;3.00;;;23.50;81.40;;;;;;7353135;19;20266;-71
2023/06/13 08:54:38;;;;;;;9.20;3.08;;;23.60;80.60;;;;;;7400343;19;20285;-70
2023/06/13 08:57:09;;;;;;;7.05;2.88;;;23.60;79.80;;;;;;7385288;19;20542;-71
2023/06/13 08:59:37;;;;;;;6.07;3.05;;;23.60;79.40;;;;;;7353778;19;19907;-72
2023/06/13 09:02:06;;;;;;;7.30;3.08;;;23.70;79.30;;;;;;7355233;19;19919;-71
2023/06/13 09:04:35;;;;;;;9.38;3.30;;;23.70;80.50;;;;;;7386614;19;19911;-70
2023/06/13 09:07:02;;;;;;;8.52;2.97;;;23.70;80.50;;;;;;7348363;19;19918;-71
2023/06/13 09:09:30;;;;;;;6.88;2.78;;;23.60;80.10;;;;;;7305092;19;19915;-70
2023/06/13 09:11:58;;;;;;;6.47;2.88;;;23.50;82.50;;;;;;7355862;19;19922;-70
2023/06/13 09:14:24;;;;;;;5.97;3.05;;;23.50;82.30;;;;;;7353891;19;19918;-70
2023/06/13 09:16:53;;;;;;;7.63;3.60;;;23.60;82.40;;;;;;7398130;19;19926;-70
2023/06/13 09:19:19;;;;;;;8.18;3.47;;;23.80;80.60;;;;;;7379789;19;20652;-70
2023/06/13 09:21:44;;;;;;;6.40;3.38;;;24.10;79.90;;;;;;7354640;19;19981;-71
2023/06/13 09:24:12;;;;;;;6.10;2.83;;;24.30;78.60;;;;;;7385817;19;19919;-71
2023/06/13 09:26:42;;;;;;;7.40;3.63;;;24.50;76.70;;;;;;7376601;19;19922;-70
2023/06/13 09:29:08;;;;;;;7.15;3.53;;;24.70;75.90;;;;;;7354065;19;19933;-70
2023/06/13 09:31:37;;;;;;;6.93;3.83;;;25.00;75.00;;;;;;7358325;19;20433;-70
2023/06/13 09:34:06;;;;;;;7.38;3.67;;;25.30;72.80;;;;;;7341821;19;19923;-71
2023/06/13 09:36:35;;;;;;;5.80;3.17;;;25.50;71.60;;;;;;7342575;19;19936;-71
2023/06/13 09:39:03;;;;;;;7.70;2.90;;;25.90;70.30;;;;;;7348462;19;20327;-72
2023/06/13 09:41:31;;;;;;;7.43;3.63;;;26.40;68.80;;;;;;7337082;19;20517;-72
2023/06/13 09:44:03;;;;;;;6.30;3.20;;;26.50;67.50;;;;;;7349400;19;19915;-72
2023/06/13 09:46:29;;;;;;;6.97;3.38;;;26.90;66.90;;;;;;7369054;19;19921;-70
2023/06/13 09:48:55;;;;;;;6.38;3.22;;;27.80;65.00;;;;;;7337332;19;19914;-71
2023/06/13 09:51:22;;;;;;;6.25;4.50;;;28.00;63.80;;;;;;7340013;19;19915;-72
2023/06/13 09:53:47;;;;;;;7.60;4.40;;;28.00;63.20;;;;;;7392236;19;19927;-71
2023/06/13 09:56:15;;;;;;;7.32;4.20;;;28.20;62.40;;;;;;7339774;19;19929;-70
2023/06/13 09:58:41;;;;;;;6.78;4.22;;;28.90;61.40;;;;;;7345267;19;19926;-71
2023/06/13 10:01:14;;;;;;;6.88;3.97;;;29.40;59.40;;;;;;7337415;19;19915;-71
2023/06/13 10:03:41;;;;;;;6.65;4.00;;;29.60;58.70;;;;;;7343996;19;19915;-70
2023/06/13 10:06:07;;;;;;;7.38;4.20;;;29.50;57.90;;;;;;7347110;19;19930;-70
2023/06/13 10:08:34;;;;;;;11.77;4.97;;;29.40;58.20;;;;;;7337235;19;19918;-74
2023/06/13 10:11:22;;;;;;;8.60;6.05;;;29.00;59.70;;;;;;7345621;19;20702;-72
2023/06/13 10:13:59;;;;;;;10.93;7.18;;;28.80;63.90;;;;;;7359999;19;19995;-71
2023/06/13 10:16:26;;;;;;;17.17;6.97;;;29.00;65.10;;;;;;7357759;19;19986;-71
2023/06/13 10:18:54;;;;;;;12.45;6.18;;;29.00;65.00;;;;;;7338329;19;19947;-73
2023/06/13 10:21:23;;;;;;;12.95;6.03;;;28.80;66.40;;;;;;7344951;19;19928;-72
2023/06/13 10:23:50;;;;;;;11.35;6.85;;;28.80;66.40;;;;;;7346010;19;19918;-71
2023/06/13 10:26:43;;;;;;;11.75;7.45;;;28.80;66.80;;;;;;7358588;19;19923;-72
2023/06/13 10:29:31;;;;;;;12.90;8.13;;;28.80;67.60;;;;;;7347865;19;19919;-73
2023/06/13 10:32:20;;;;;;;13.70;8.32;;;28.60;69.30;;;;;;7358066;19;19915;-73
2023/06/13 10:35:01;;;;;;;16.73;8.88;;;28.50;70.80;;;;;;7353308;19;19919;-74
2023/06/13 10:37:49;;;;;;;15.30;7.80;;;28.10;71.90;;;;;;7398498;19;19914;-73
2023/06/13 10:40:55;;;;;;;12.55;8.32;;;27.80;73.50;;;;;;7397758;19;19915;-73
2023/06/13 10:43:49;;;;;;;11.13;8.05;;;27.90;73.80;;;;;;7397956;19;19946;-73
2023/06/13 10:46:15;;;;;;;12.52;9.32;;;27.90;74.30;;;;;;7402041;19;19918;-72
2023/06/13 10:48:51;;;;;;;12.88;9.57;;;28.30;74.20;;;;;;7401272;19;19989;-73
2023/06/13 10:51:27;;;;;;;13.98;10.75;;;29.80;71.30;;;;;;7402438;19;19915;-73
2023/06/13 10:54:09;;;;;;;14.85;10.15;;;29.60;71.00;;;;;;7398966;19;20328;-72
2023/06/13 10:56:39;;;;;;;14.35;8.88;;;29.00;72.40;;;;;;7399942;19;19914;-73
2023/06/13 10:59:08;;;;;;;13.73;9.63;;;29.20;73.00;;;;;;7375202;19;19915;-73
2023/06/13 11:01:36;;;;;;;12.15;8.77;;;29.70;73.10;;;;;;7400546;19;19923;-73
2023/06/13 11:04:19;;;;;;;13.02;8.57;;;30.30;71.70;;;;;;7396431;19;19922;-73
2023/06/13 11:06:47;;;;;;;12.85;8.70;;;30.90;69.70;;;;;;7398224;19;19915;-73
2023/06/13 11:09:21;;;;;;;11.05;7.88;;;31.60;67.40;;;;;;7396078;19;19927;-73
2023/06/13 11:11:55;;;;;;;13.13;9.98;;;31.90;65.90;;;;;;7398728;19;20644;-73
2023/06/13 11:14:42;;;;;;;11.35;8.50;;;31.70;65.10;;;;;;7398654;19;20272;-74
2023/06/13 11:17:07;;;;;;;9.82;7.72;;;32.20;64.10;;;;;;7397312;19;19922;-73
2023/06/13 11:19:38;;;;;;;14.02;8.02;;;32.40;63.90;;;;;;7398031;19;19919;-74
2023/06/13 11:22:05;;;;;;;15.63;10.75;;;31.80;64.00;;;;;;7396980;19;19958;-75
2023/06/13 11:24:34;;;;;;;12.50;8.20;;;31.20;66.10;;;;;;7402103;19;19928;-72
2023/06/13 11:27:03;;;;;;;11.35;7.25;;;30.00;68.70;;;;;;7399915;19;19926;-73
2023/06/13 11:29:30;;;;;;;10.82;7.45;;;29.80;68.60;;;;;;7398265;19;19919;-72
2023/06/13 11:31:56;;;;;;;9.40;6.18;;;29.50;69.70;;;;;;7395967;19;19919;-72
2023/06/13 11:34:28;;;;;;;9.10;6.72;;;29.70;67.90;;;;;;7387335;19;20014;-73
2023/06/13 11:37:19;;;;;;;11.70;7.45;;;29.40;68.10;;;;;;7332181;19;19925;-73
2023/06/13 11:39:52;;;;;;;8.93;6.93;;;29.40;68.30;;;;;;7336470;19;21733;-72
2023/06/13 11:42:18;;;;;;;8.98;6.35;;;29.80;67.60;;;;;;7366038;19;19907;-72
2023/06/13 11:44:44;;;;;;;9.93;7.50;;;30.30;67.10;;;;;;7389146;19;19922;-72
2023/06/13 11:47:13;;;;;;;10.80;7.28;;;29.70;68.80;;;;;;7398023;19;19923;-73
2023/06/13 11:49:39;;;;;;;11.15;6.45;;;28.90;70.90;;;;;;7349596;19;19999;-75
2023/06/13 11:52:23;;;;;;;11.43;5.93;;;28.00;74.80;;;;;;7348595;19;20334;-73
2023/06/13 11:54:50;;;;;;;10.05;6.50;;;27.80;75.90;;;;;;7346405;19;19922;-72
2023/06/13 11:57:17;;;;;;;11.20;6.65;;;27.80;76.30;;;;;;7360530;19;19925;-72
2023/06/13 11:59:43;;;;;;;12.95;6.07;;;27.50;77.90;;;;;;7358824;19;20291;-72
2023/06/13 12:02:13;;;;;;;9.45;6.10;;;27.00;79.90;;;;;;7347359;19;20356;-72
2023/06/13 12:04:42;;;;;;;10.90;5.95;;;26.60;81.60;;;;;;7333052;19;19914;-71
2023/06/13 12:07:08;;;;;;;8.90;6.70;;;26.70;81.90;;;;;;7354057;19;19914;-73
2023/06/13 12:09:34;;;;;;;9.40;5.90;;;26.90;81.20;;;;;;7354422;19;19917;-71
2023/06/13 12:12:02;;;;;;;10.13;6.32;;;26.90;80.60;;;;;;7339555;19;19926;-73
2023/06/13 12:14:29;;;;;;;11.98;6.63;;;26.70;80.80;;;;;;7337870;19;19921;-72
2023/06/13 12:16:54;;;;;;;8.13;6.43;;;26.40;82.00;;;;;;7341617;19;19910;-72
2023/06/13 12:19:22;;;;;;;9.65;6.90;;;26.50;82.10;;;;;;7343338;19;19925;-72
2023/06/13 12:21:57;;;;;;;9.18;7.40;;;26.50;82.20;;;;;;7349850;19;19922;-73
2023/06/13 12:24:25;;;;;;;10.73;4.90;;;26.50;82.30;;;;;;7346630;19;19966;-72
2023/06/13 12:26:52;;;;;;;9.02;7.00;;;26.90;81.10;;;;;;7389381;19;20007;-72
2023/06/13 12:29:23;;;;;;;11.10;6.47;;;26.90;80.60;;;;;;7360999;19;19935;-74
2023/06/13 12:31:56;;;;;;;7.28;5.25;;;26.70;80.50;;;;;;7376316;19;19939;-74
2023/06/13 12:34:29;;;;;;;10.27;8.02;;;26.60;81.40;;;;;;7338523;19;19967;-73
2023/06/13 12:37:06;;;;;;;12.13;7.55;;;26.90;80.20;;;;;;7355373;19;19939;-74
2023/06/13 12:39:33;;;;;;;10.38;6.97;;;26.60;80.90;;;;;;7350602;19;19939;-73
2023/06/13 12:42:02;;;;;;;17.00;12.00;;;26.40;82.10;;;;;;7344955;19;19923;-74
2023/06/13 12:44:33;;;;;;;9.98;5.88;;;26.80;81.30;;;;;;7343330;19;19914;-73
2023/06/13 12:47:02;;;;;;;8.70;6.18;;;26.60;81.20;;;;;;7360649;19;19927;-71
2023/06/13 12:49:37;;;;;;;7.50;4.18;;;26.00;82.20;;;;;;7339763;19;19955;-72